Time;durP1;ratioP1;P1;durP2;ratioP2;P2;SDS_P1;SDS_P2;PMS_P1;PMS_P2;Temp;Humidity;BMP_temperature;BMP_pressure;BME280_temperature;BME280_humidity;BME280_pressure;Samples;Min_cycle;Max_cycle;Signal;HPM_P1;HPM_P2
2022/07/04 00:02:10;;;;;;;;;;;;;;;;;;5157830;27;19915;-82
2022/07/04 00:04:36;;;;;;;;;;;;;;;;;;5157462;27;19915;-83
2022/07/04 00:07:01;;;;;;;;;;;;;;;;;;5139656;27;19916;-83
2022/07/04 00:09:27;;;;;;;;;;;;;;;;;;5157005;27;20365;-83
2022/07/04 00:11:52;;;;;;;;;;;;;;;;;;5156756;27;20281;-83
2022/07/04 00:14:17;;;;;;;;;;;;;;;;;;5156189;27;19953;-83
2022/07/04 00:16:43;;;;;;;;;;;;;;;;;;5157429;27;19919;-84
2022/07/04 00:19:08;;;;;;;;;;;;;;;;;;5157891;27;19915;-83
2022/07/04 00:21:34;;;;;;;;;;;;;;;;;;5157025;27;19919;-83
2022/07/04 00:24:00;;;;;;;;;;;;;;;;;;5157172;27;19915;-83
2022/07/04 00:26:25;;;;;;;;;;;;;;;;;;5156341;27;19916;-83
2022/07/04 00:28:51;;;;;;;;;;;;;;;;;;5156710;27;19922;-84
2022/07/04 00:31:16;;;;;;;;;;;;;;;;;;5156830;27;19918;-83
2022/07/04 00:33:41;;;;;;;;;;;;;;;;;;5156751;27;19915;-83
2022/07/04 00:36:07;;;;;;;;;;;;;;;;;;5157076;27;19991;-82
2022/07/04 00:38:33;;;;;;;;;;;;;;;;;;5156603;27;19926;-82
2022/07/04 00:40:59;;;;;;;;;;;;;;;;;;5138352;27;19922;-82
2022/07/04 00:43:25;;;;;;;;;;;;;;;;;;5156466;27;19915;-83
2022/07/04 00:45:51;;;;;;;;;;;;;;;;;;5157419;27;19915;-84
2022/07/04 00:48:16;;;;;;;;;;;;;;;;;;5156572;27;20362;-83
2022/07/04 00:50:43;;;;;;;;;;;;;;;;;;5156850;27;20036;-82
2022/07/04 00:53:09;;;;;;;;;;;;;;;;;;5156370;27;19915;-82
2022/07/04 00:55:34;;;;;;;;;;;;;;;;;;5155174;27;20296;-83
2022/07/04 00:57:59;;;;;;;;;;;;;;;;;;5140050;27;20006;-84
2022/07/04 01:00:25;;;;;;;;;;;;;;;;;;5156748;27;19934;-83
2022/07/04 01:02:50;;;;;;;;;;;;;;;;;;5157191;27;20383;-84
2022/07/04 01:05:16;;;;;;;;;;;;;;;;;;5156097;27;19915;-83
2022/07/04 01:07:42;;;;;;;;;;;;;;;;;;5155522;27;19911;-83
2022/07/04 01:10:08;;;;;;;;;;;;;;;;;;5156309;27;19922;-83
2022/07/04 01:12:34;;;;;;;;;;;;;;;;;;5157150;27;19982;-83
2022/07/04 01:15:00;;;;;;;;;;;;;;;;;;5155009;27;19964;-83
2022/07/04 01:17:25;;;;;;;;;;;;;;;;;;5155959;27;19915;-83
2022/07/04 01:19:51;;;;;;;;;;;;;;;;;;5154842;27;19919;-84
2022/07/04 01:22:16;;;;;;;;;;;;;;;;;;5156215;27;19920;-83
2022/07/04 01:24:42;;;;;;;;;;;;;;;;;;5155455;27;19915;-83
2022/07/04 01:27:07;;;;;;;;;;;;;;;;;;5156217;27;19915;-83
2022/07/04 01:29:32;;;;;;;;;;;;;;;;;;5155155;27;19919;-83
2022/07/04 01:32:03;;;;;;;;;;;;;;;;;;5156065;27;19915;-83
2022/07/04 01:34:28;;;;;;;;;;;;;;;;;;5156727;27;19915;-83
2022/07/04 01:36:54;;;;;;;;;;;;;;;;;;5156264;27;20281;-84
2022/07/04 01:39:19;;;;;;;;;;;;;;;;;;5158577;27;19915;-83
2022/07/04 01:41:45;;;;;;;;;;;;;;;;;;5156391;27;19915;-83
2022/07/04 01:44:10;;;;;;;;;;;;;;;;;;5156204;27;19915;-82
2022/07/04 01:46:36;;;;;;;;;;;;;;;;;;5155734;27;19915;-83
2022/07/04 01:49:01;;;;;;;;;;;;;;;;;;5155956;27;19915;-83
2022/07/04 01:51:26;;;;;;;;;;;;;;;;;;5156208;27;19915;-82
2022/07/04 01:53:52;;;;;;;;;;;;;;;;;;5155908;27;19919;-82
2022/07/04 01:56:17;;;;;;;;;;;;;;;;;;5157667;27;19922;-83
2022/07/04 01:58:43;;;;;;;;;;;;;;;;;;5159644;27;19919;-84
2022/07/04 02:03:51;;;;;;;;;;;;;;;;;;5159663;27;19990;-84
2022/07/04 02:06:17;;;;;;;;;;;;;;;;;;5160042;27;20390;-83
2022/07/04 02:11:26;;;;;;;;;;;;;;;;;;5160029;27;19922;-83
2022/07/04 02:13:52;;;;;;;;;;;;;;;;;;5159523;27;19916;-84
2022/07/04 02:16:18;;;;;;;;;;;;;;;;;;5160297;27;19922;-82
2022/07/04 02:18:44;;;;;;;;;;;;;;;;;;5140789;27;19919;-83
2022/07/04 02:21:09;;;;;;;;;;;;;;;;;;5159514;27;19919;-83
2022/07/04 02:23:34;;;;;;;;;;;;;;;;;;5159235;27;19915;-83
2022/07/04 02:26:00;;;;;;;;;;;;;;;;;;5159923;27;20002;-83
2022/07/04 02:28:25;;;;;;;;;;;;;;;;;;5145310;27;20044;-83
2022/07/04 02:30:51;;;;;;;;;;;;;;;;;;5160966;27;19962;-83
2022/07/04 02:33:16;;;;;;;;;;;;;;;;;;5141123;27;19918;-82
2022/07/04 02:35:42;;;;;;;;;;;;;;;;;;5157768;27;19919;-83
2022/07/04 02:38:07;;;;;;;;;;;;;;;;;;5141362;27;20378;-82
2022/07/04 02:40:32;;;;;;;;;;;;;;;;;;5158694;27;19919;-82
2022/07/04 02:42:58;;;;;;;;;;;;;;;;;;5158114;27;20370;-83
2022/07/04 02:45:23;;;;;;;;;;;;;;;;;;5158207;27;19915;-83
2022/07/04 02:47:49;;;;;;;;;;;;;;;;;;5159513;27;19950;-83
2022/07/04 02:50:14;;;;;;;;;;;;;;;;;;5159372;27;19915;-83
2022/07/04 02:52:40;;;;;;;;;;;;;;;;;;5159376;27;19915;-83
2022/07/04 02:55:05;;;;;;;;;;;;;;;;;;5159003;27;19915;-83
2022/07/04 02:57:30;;;;;;;;;;;;;;;;;;5159150;27;19958;-82
2022/07/04 02:59:56;;;;;;;;;;;;;;;;;;5158753;27;20362;-83
2022/07/04 03:02:21;;;;;;;;;;;;;;;;;;5159601;27;19957;-82
2022/07/04 03:04:47;;;;;;;;;;;;;;;;;;5158952;27;20019;-82
2022/07/04 03:07:12;;;;;;;;;;;;;;;;;;5160936;27;19919;-84
2022/07/04 03:09:37;;;;;;;;;;;;;;;;;;5163912;27;19915;-82
2022/07/04 03:12:03;;;;;;;;;;;;;;;;;;5173302;27;20349;-85
2022/07/04 03:14:29;;;;;;;;;;;;;;;;;;5184144;27;19919;-84
2022/07/04 03:16:54;;;;;;;;;;;;;;;;;;5191368;27;19958;-82
2022/07/04 03:19:19;;;;;;;;;;;;;;;;;;5149174;27;20277;-82
2022/07/04 03:21:45;;;;;;;;;;;;;;;;;;5159654;27;19922;-84
2022/07/04 03:24:11;;;;;;;;;;;;;;;;;;5140873;27;19983;-83
2022/07/04 03:26:36;;;;;;;;;;;;;;;;;;5140773;27;19915;-84
2022/07/04 03:29:02;;;;;;;;;;;;;;;;;;5139751;27;19919;-83
2022/07/04 03:31:28;;;;;;;;;;;;;;;;;;5158047;27;19994;-83
2022/07/04 03:33:54;;;;;;;;;;;;;;;;;;5157910;27;19972;-83
2022/07/04 03:36:19;;;;;;;;;;;;;;;;;;5158069;27;19931;-84
2022/07/04 03:38:45;;;;;;;;;;;;;;;;;;5150910;27;19922;-83
2022/07/04 03:41:11;;;;;;;;;;;;;;;;;;5168969;27;19946;-84
2022/07/04 03:43:36;;;;;;;;;;;;;;;;;;5166991;27;19937;-83
2022/07/04 03:46:02;;;;;;;;;;;;;;;;;;5178745;27;19926;-83
2022/07/04 03:48:27;;;;;;;;;;;;;;;;;;5178978;27;19914;-86
2022/07/04 03:50:52;;;;;;;;;;;;;;;;;;5153744;27;19966;-83
2022/07/04 03:53:19;;;;;;;;;;;;;;;;;;5132056;27;20019;-82
2022/07/04 03:55:45;;;;;;;;;;;;;;;;;;5174483;27;19922;-84
2022/07/04 03:58:10;;;;;;;;;;;;;;;;;;5170773;27;19914;-82
2022/07/04 04:00:36;;;;;;;;;;;;;;;;;;5179155;27;20010;-82
2022/07/04 04:03:01;;;;;;;;;;;;;;;;;;5180694;27;19918;-84
2022/07/04 04:05:27;;;;;;;;;;;;;;;;;;5178759;27;19914;-83
2022/07/04 04:07:56;;;;;;;;;;;;;;;;;;5178116;27;19926;-84
2022/07/04 04:10:22;;;;;;;;;;;;;;;;;;5179786;27;19915;-83
2022/07/04 04:12:47;;;;;;;;;;;;;;;;;;5178603;27;19915;-83
2022/07/04 04:15:13;;;;;;;;;;;;;;;;;;5178398;27;19918;-84
2022/07/04 04:17:38;;;;;;;;;;;;;;;;;;5178675;27;19989;-83
2022/07/04 04:20:04;;;;;;;;;;;;;;;;;;5154791;27;19926;-84
2022/07/04 04:22:29;;;;;;;;;;;;;;;;;;5157357;27;20386;-83
2022/07/04 04:24:55;;;;;;;;;;;;;;;;;;5157998;27;20322;-85
2022/07/04 04:27:20;;;;;;;;;;;;;;;;;;5158085;27;19915;-83
2022/07/04 04:29:46;;;;;;;;;;;;;;;;;;5157965;27;19915;-84
2022/07/04 04:32:11;;;;;;;;;;;;;;;;;;5157367;27;19960;-83
2022/07/04 04:34:36;;;;;;;;;;;;;;;;;;5155296;27;19921;-83
2022/07/04 04:37:02;;;;;;;;;;;;;;;;;;5156389;27;19915;-83
2022/07/04 04:39:27;;;;;;;;;;;;;;;;;;5156929;27;19923;-83
2022/07/04 04:41:53;;;;;;;;;;;;;;;;;;5156934;27;19926;-83
2022/07/04 04:44:19;;;;;;;;;;;;;;;;;;5156294;27;20003;-84
2022/07/04 04:46:44;;;;;;;;;;;;;;;;;;5155357;27;19919;-83
2022/07/04 04:49:10;;;;;;;;;;;;;;;;;;5156594;27;19919;-83
2022/07/04 04:51:36;;;;;;;;;;;;;;;;;;5155168;27;20420;-83
2022/07/04 04:54:01;;;;;;;;;;;;;;;;;;5155779;27;19915;-83
2022/07/04 04:56:27;;;;;;;;;;;;;;;;;;5148258;27;19915;-84
2022/07/04 04:58:52;;;;;;;;;;;;;;;;;;5141030;27;19919;-84
2022/07/04 05:01:18;;;;;;;;;;;;;;;;;;5155011;27;19915;-83
2022/07/04 05:03:43;;;;;;;;;;;;;;;;;;5155733;27;19919;-84
2022/07/04 05:06:09;;;;;;;;;;;;;;;;;;5155447;27;19919;-83
2022/07/04 05:08:35;;;;;;;;;;;;;;;;;;5155815;27;19915;-84
2022/07/04 05:11:00;;;;;;;;;;;;;;;;;;5154975;27;19968;-84
2022/07/04 05:13:26;;;;;;;;;;;;;;;;;;5156416;27;19915;-84
2022/07/04 05:15:51;;;;;;;;;;;;;;;;;;5156639;27;19915;-83
2022/07/04 05:18:16;;;;;;;;;;;;;;;;;;5156397;27;19956;-85
2022/07/04 05:20:42;;;;;;;;;;;;;;;;;;5154170;27;19961;-84
2022/07/04 05:23:08;;;;;;;;;;;;;;;;;;5136033;27;19916;-84
2022/07/04 05:25:33;;;;;;;;;;;;;;;;;;5134024;28;19915;-84
2022/07/04 05:27:59;;;;;;;;;;;;;;;;;;5135801;27;19938;-84
2022/07/04 05:30:25;;;;;;;;;;;;;;;;;;5134468;27;20293;-83
2022/07/04 05:32:50;;;;;;;;;;;;;;;;;;5138356;27;20010;-84
2022/07/04 05:35:16;;;;;;;;;;;;;;;;;;5139907;27;19919;-85
2022/07/04 05:37:41;;;;;;;;;;;;;;;;;;5139727;27;19916;-84
2022/07/04 05:40:07;;;;;;;;;;;;;;;;;;5139888;27;19912;-84
2022/07/04 05:42:34;;;;;;;;;;;;;;;;;;5138322;27;20125;-84
2022/07/04 05:44:59;;;;;;;;;;;;;;;;;;5139556;27;19927;-85
2022/07/04 05:47:24;;;;;;;;;;;;;;;;;;5138437;27;19911;-84
2022/07/04 05:49:50;;;;;;;;;;;;;;;;;;5139282;27;20017;-85
2022/07/04 05:52:16;;;;;;;;;;;;;;;;;;5138328;27;19915;-84
2022/07/04 05:54:41;;;;;;;;;;;;;;;;;;5138587;27;20324;-85
2022/07/04 05:57:07;;;;;;;;;;;;;;;;;;5137523;27;19916;-84
2022/07/04 05:59:32;;;;;;;;;;;;;;;;;;5139005;27;19919;-84
2022/07/04 06:01:58;;;;;;;;;;;;;;;;;;5138543;27;19950;-85
2022/07/04 06:04:23;;;;;;;;;;;;;;;;;;5137480;27;19951;-84
2022/07/04 06:06:48;;;;;;;;;;;;;;;;;;5138841;27;19961;-84
2022/07/04 06:09:14;;;;;;;;;;;;;;;;;;5138557;27;19915;-85
2022/07/04 06:11:39;;;;;;;;;;;;;;;;;;5119613;27;20362;-85
2022/07/04 06:14:06;;;;;;;;;;;;;;;;;;5138472;27;19923;-84
2022/07/04 06:16:31;;;;;;;;;;;;;;;;;;5138097;27;20351;-85
2022/07/04 06:18:57;;;;;;;;;;;;;;;;;;5151818;27;19919;-84
2022/07/04 06:21:22;;;;;;;;;;;;;;;;;;5177257;27;20010;-85
2022/07/04 06:23:47;;;;;;;;;;;;;;;;;;5169859;27;19919;-86
2022/07/04 06:26:13;;;;;;;;;;;;;;;;;;5168505;27;20446;-86
2022/07/04 06:28:38;;;;;;;;;;;;;;;;;;5149026;27;19927;-86
2022/07/04 06:31:04;;;;;;;;;;;;;;;;;;5152859;27;19947;-86
2022/07/04 06:33:30;;;;;;;;;;;;;;;;;;5155545;27;20374;-85
2022/07/04 06:35:55;;;;;;;;;;;;;;;;;;5165557;27;19919;-85
2022/07/04 06:38:30;;;;;;;;;;;;;;;;;;5150563;27;19918;-86
2022/07/04 06:40:58;;;;;;;;;;;;;;;;;;5168390;27;19919;-85
2022/07/04 06:43:25;;;;;;;;;;;;;;;;;;5171853;27;20001;-85
2022/07/04 06:45:50;;;;;;;;;;;;;;;;;;5151709;27;19915;-84
2022/07/04 06:48:16;;;;;;;;;;;;;;;;;;5176533;27;19931;-84
2022/07/04 06:50:42;;;;;;;;;;;;;;;;;;5196195;27;19918;-87
2022/07/04 07:11:22;;;;;;;;;;;;;;;;;;5739107;22;19924;-90
2022/07/04 07:13:50;;;;;;;;;;;;;;;;;;5083907;28;19909;-87
2022/07/04 07:27:03;;;;;;;;;;;;;;;;;;5023926;28;19964;-86
2022/07/04 07:29:29;;;;;;;;;;;;;;;;;;5006430;28;19936;-86
2022/07/04 07:40:59;;;;;;;;;;;;;;;;;;;;;
2022/07/04 07:50:05;;;;;;;;;;;;;;;;;;5049942;28;19928;-84
2022/07/04 08:22:06;;;;;;;;;;;;;;;;;;5947528;22;19967;-86
2022/07/04 08:43:05;;;;;;;;;;;;;;;;;;5413063;22;20395;-87
2022/07/04 08:45:34;;;;;;;;;;;;;;;;;;5038810;28;19921;-84
2022/07/04 08:48:03;;;;;;;;;;;;;;;;;;5054784;28;19982;-85
2022/07/04 08:50:53;;;;;;;;;;;;;;;;;;5061994;28;19921;-86
2022/07/04 08:53:20;;;;;;;;;;;;;;;;;;5059583;28;19956;-85
2022/07/04 08:58:30;;;;;;;;;;;;;;;;;;5059055;28;19970;-84
2022/07/04 09:01:07;;;;;;;;;;;;;;;;;;5056323;28;19921;-83
2022/07/04 09:03:32;;;;;;;;;;;;;;;;;;5057036;28;19940;-84
2022/07/04 09:05:58;;;;;;;;;;;;;;;;;;5055769;28;19913;-85
2022/07/04 09:08:24;;;;;;;;;;;;;;;;;;5068537;28;19917;-85
2022/07/04 09:10:50;;;;;;;;;;;;;;;;;;5080767;28;19963;-85
2022/07/04 09:13:17;;;;;;;;;;;;;;;;;;5081241;28;20290;-84
2022/07/04 09:15:43;;;;;;;;;;;;;;;;;;5082155;28;19917;-85
2022/07/04 09:18:19;;;;;;;;;;;;;;;;;;5059447;28;19913;-86
2022/07/04 09:20:45;;;;;;;;;;;;;;;;;;5075052;28;19916;-84
2022/07/04 09:23:16;;;;;;;;;;;;;;;;;;5057965;28;19923;-84
2022/07/04 09:25:42;;;;;;;;;;;;;;;;;;5076636;28;19923;-82
2022/07/04 09:28:07;;;;;;;;;;;;;;;;;;5078529;28;19916;-83
2022/07/04 09:30:33;;;;;;;;;;;;;;;;;;5078705;28;19995;-84
2022/07/04 09:33:02;;;;;;;;;;;;;;;;;;5079604;28;19943;-85
2022/07/04 09:35:29;;;;;;;;;;;;;;;;;;5083765;28;19972;-84
2022/07/04 09:37:56;;;;;;;;;;;;;;;;;;5082213;28;19924;-85
2022/07/04 09:40:26;;;;;;;;;;;;;;;;;;5081041;28;19921;-85
2022/07/04 09:42:52;;;;;;;;;;;;;;;;;;5066259;28;20012;-85
2022/07/04 09:45:17;;;;;;;;;;;;;;;;;;5058706;28;19944;-86
2022/07/04 09:47:44;;;;;;;;;;;;;;;;;;5073123;28;19917;-85
2022/07/04 09:50:12;;;;;;;;;;;;;;;;;;5062368;28;19923;-87
2022/07/04 09:52:52;;;;;;;;;;;;;;;;;;5075765;28;19916;-86
2022/07/04 09:55:24;;;;;;;;;;;;;;;;;;5077496;28;19939;-85
2022/07/04 09:57:49;;;;;;;;;;;;;;;;;;5077045;28;19923;-85
2022/07/04 10:00:19;;;;;;;;;;;;;;;;;;5062592;28;20295;-86
2022/07/04 10:02:45;;;;;;;;;;;;;;;;;;5057808;28;20000;-88
2022/07/04 10:05:11;;;;;;;;;;;;;;;;;;5059046;28;19917;-92
2022/07/04 10:07:43;;;;;;;;;;;;;;;;;;5059452;28;19916;-91
2022/07/04 10:10:25;;;;;;;;;;;;;;;;;;5077484;28;19912;-90
2022/07/04 10:12:59;;;;;;;;;;;;;;;;;;5050726;28;19986;-86
2022/07/04 10:15:25;;;;;;;;;;;;;;;;;;5035580;28;19917;-87
2022/07/04 10:17:51;;;;;;;;;;;;;;;;;;5055254;28;20463;-87
2022/07/04 10:20:16;;;;;;;;;;;;;;;;;;5057222;28;19921;-86
2022/07/04 10:22:42;;;;;;;;;;;;;;;;;;5079508;28;19950;-86
2022/07/04 10:25:08;;;;;;;;;;;;;;;;;;5115139;28;19896;-87
2022/07/04 10:27:34;;;;;;;;;;;;;;;;;;5083797;28;19942;-87
2022/07/04 10:30:01;;;;;;;;;;;;;;;;;;5060144;28;19920;-86
2022/07/04 10:32:27;;;;;;;;;;;;;;;;;;5096866;28;19943;-87
2022/07/04 10:34:53;;;;;;;;;;;;;;;;;;5096973;28;19923;-86
2022/07/04 10:37:18;;;;;;;;;;;;;;;;;;5078750;28;19916;-87
2022/07/04 10:39:43;;;;;;;;;;;;;;;;;;5096890;28;19920;-86
2022/07/04 10:42:21;;;;;;;;;;;;;;;;;;5078351;28;19920;-87
2022/07/04 10:44:48;;;;;;;;;;;;;;;;;;5078378;28;19921;-88
2022/07/04 10:47:21;;;;;;;;;;;;;;;;;;5240550;22;19924;-86
2022/07/04 10:49:48;;;;;;;;;;;;;;;;;;5048132;28;19920;-87
2022/07/04 10:52:13;;;;;;;;;;;;;;;;;;5071680;28;19921;-87
2022/07/04 10:54:42;;;;;;;;;;;;;;;;;;5063696;28;19921;-87
2022/07/04 10:57:12;;;;;;;;;;;;;;;;;;5069651;28;19931;-87
2022/07/04 10:59:38;;;;;;;;;;;;;;;;;;5064419;28;19932;-87
2022/07/04 11:02:04;;;;;;;;;;;;;;;;;;5065152;28;19921;-87
2022/07/04 11:04:48;;;;;;;;;;;;;;;;;;5080268;28;19927;-86
2022/07/04 11:07:14;;;;;;;;;;;;;;;;;;5089577;28;19975;-88
2022/07/04 11:09:40;;;;;;;;;;;;;;;;;;5068491;28;19928;-88
2022/07/04 11:12:06;;;;;;;;;;;;;;;;;;5071642;28;19920;-87
2022/07/04 11:14:38;;;;;;;;;;;;;;;;;;5069062;28;20296;-87
2022/07/04 11:17:06;;;;;;;;;;;;;;;;;;5059126;28;19924;-86
2022/07/04 11:19:32;;;;;;;;;;;;;;;;;;5061666;28;19920;-87
2022/07/04 11:21:57;;;;;;;;;;;;;;;;;;5064537;28;19943;-88
2022/07/04 11:24:24;;;;;;;;;;;;;;;;;;5080189;28;19920;-88
2022/07/04 11:26:49;;;;;;;;;;;;;;;;;;5065514;28;19916;-88
2022/07/04 11:29:15;;;;;;;;;;;;;;;;;;5082965;28;19962;-86
2022/07/04 11:31:42;;;;;;;;;;;;;;;;;;5081937;28;20330;-86
2022/07/04 11:34:07;;;;;;;;;;;;;;;;;;5091878;28;19916;-90
2022/07/04 11:36:33;;;;;;;;;;;;;;;;;;5069493;28;19955;-85
2022/07/04 11:39:00;;;;;;;;;;;;;;;;;;5072823;28;19959;-87
2022/07/04 11:47:03;;;;;;;;;;;;;;;;;;5079069;28;19932;-84
2022/07/04 11:49:28;;;;;;;;;;;;;;;;;;5079301;28;19920;-86
2022/07/04 11:51:55;;;;;;;;;;;;;;;;;;5060662;28;19958;-85
2022/07/04 11:54:21;;;;;;;;;;;;;;;;;;5069914;28;19956;-86
2022/07/04 11:56:46;;;;;;;;;;;;;;;;;;5054261;28;19920;-85
2022/07/04 11:59:15;;;;;;;;;;;;;;;;;;5082034;28;19916;-85
2022/07/04 12:01:42;;;;;;;;;;;;;;;;;;5067039;28;19970;-85
2022/07/04 12:04:12;;;;;;;;;;;;;;;;;;5070470;28;19924;-85
2022/07/04 12:06:38;;;;;;;;;;;;;;;;;;5063602;28;19947;-85
2022/07/04 12:09:04;;;;;;;;;;;;;;;;;;5068146;28;19948;-85
2022/07/04 12:11:48;;;;;;;;;;;;;;;;;;5064315;28;19920;-85
2022/07/04 12:14:13;;;;;;;;;;;;;;;;;;5067194;28;19920;-86
2022/07/04 12:16:39;;;;;;;;;;;;;;;;;;5076887;28;20382;-85
2022/07/04 12:19:08;;;;;;;;;;;;;;;;;;5082616;28;20287;-86
2022/07/04 12:21:34;;;;;;;;;;;;;;;;;;5063021;28;19987;-84
2022/07/04 12:23:59;;;;;;;;;;;;;;;;;;5070529;28;19968;-85
2022/07/04 12:26:25;;;;;;;;;;;;;;;;;;5073199;28;20062;-85
2022/07/04 12:28:50;;;;;;;;;;;;;;;;;;5073306;28;20398;-85
2022/07/04 12:31:16;;;;;;;;;;;;;;;;;;5079961;28;19917;-85
2022/07/04 12:33:53;;;;;;;;;;;;;;;;;;5066758;28;20265;-85
2022/07/04 12:36:18;;;;;;;;;;;;;;;;;;5068746;28;19923;-86
2022/07/04 12:38:44;;;;;;;;;;;;;;;;;;5061576;28;20015;-85
2022/07/04 12:41:13;;;;;;;;;;;;;;;;;;5040890;28;19917;-85
2022/07/04 12:43:41;;;;;;;;;;;;;;;;;;5061487;28;19921;-85
2022/07/04 12:46:14;;;;;;;;;;;;;;;;;;5059686;28;19913;-86
2022/07/04 12:48:40;;;;;;;;;;;;;;;;;;5058741;28;19924;-86
2022/07/04 12:51:10;;;;;;;;;;;;;;;;;;5058508;28;20015;-84
2022/07/04 12:53:36;;;;;;;;;;;;;;;;;;5061661;28;19920;-85
2022/07/04 12:56:01;;;;;;;;;;;;;;;;;;5063984;28;20269;-86
2022/07/04 12:58:27;;;;;;;;;;;;;;;;;;5061953;28;19928;-85
2022/07/04 13:00:52;;;;;;;;;;;;;;;;;;5061356;28;19939;-86
2022/07/04 13:03:18;;;;;;;;;;;;;;;;;;5060165;28;20295;-87
2022/07/04 13:05:44;;;;;;;;;;;;;;;;;;5074604;28;19924;-85
2022/07/04 13:08:11;;;;;;;;;;;;;;;;;;5064765;28;19924;-86
2022/07/04 13:10:39;;;;;;;;;;;;;;;;;;5084376;28;19916;-84
2022/07/04 13:13:04;;;;;;;;;;;;;;;;;;5084486;28;19923;-83
2022/07/04 13:15:30;;;;;;;;;;;;;;;;;;5084877;28;19923;-84
2022/07/04 13:17:55;;;;;;;;;;;;;;;;;;5084353;28;19959;-84
2022/07/04 13:20:24;;;;;;;;;;;;;;;;;;5084683;28;19959;-84
2022/07/04 13:22:49;;;;;;;;;;;;;;;;;;5084078;28;19917;-83
2022/07/04 13:25:15;;;;;;;;;;;;;;;;;;5080204;28;19916;-84
2022/07/04 13:27:40;;;;;;;;;;;;;;;;;;5079079;28;20315;-83
2022/07/04 13:30:06;;;;;;;;;;;;;;;;;;5080553;28;19951;-84
2022/07/04 13:32:32;;;;;;;;;;;;;;;;;;5076190;28;19917;-84
2022/07/04 13:34:58;;;;;;;;;;;;;;;;;;5062497;28;19959;-85
2022/07/04 13:37:24;;;;;;;;;;;;;;;;;;5078121;28;19923;-88
2022/07/04 13:39:49;;;;;;;;;;;;;;;;;;5076412;28;19917;-84
2022/07/04 13:42:56;;;;;;;;;;;;;;;;;;5079092;28;19980;-83
2022/07/04 13:45:00;;;;;;;;;;;;;;;;;;5079276;28;19924;-83
2022/07/04 13:47:26;;;;;;;;;;;;;;;;;;5077542;28;19920;-85
2022/07/04 13:49:51;;;;;;;;;;;;;;;;;;5076067;28;20017;-85
2022/07/04 13:52:16;;;;;;;;;;;;;;;;;;5077785;28;19948;-84
2022/07/04 13:54:42;;;;;;;;;;;;;;;;;;5074448;28;19921;-85
2022/07/04 13:57:07;;;;;;;;;;;;;;;;;;5076396;28;19920;-86
2022/07/04 13:59:32;;;;;;;;;;;;;;;;;;5080097;28;19922;-85
2022/07/04 14:01:58;;;;;;;;;;;;;;;;;;5087670;28;19971;-84
2022/07/04 14:04:23;;;;;;;;;;;;;;;;;;5078285;28;20381;-84
2022/07/04 14:06:49;;;;;;;;;;;;;;;;;;5080726;28;20062;-85
2022/07/04 14:09:14;;;;;;;;;;;;;;;;;;5068023;28;19943;-83
2022/07/04 14:11:40;;;;;;;;;;;;;;;;;;5069102;28;19963;-85
2022/07/04 14:14:05;;;;;;;;;;;;;;;;;;5074910;28;19920;-85
2022/07/04 14:16:31;;;;;;;;;;;;;;;;;;5089370;28;19917;-86
2022/07/04 14:18:57;;;;;;;;;;;;;;;;;;5088579;28;19913;-84
2022/07/04 14:21:22;;;;;;;;;;;;;;;;;;5070108;28;20032;-85
2022/07/04 14:23:48;;;;;;;;;;;;;;;;;;5089676;28;20330;-84
2022/07/04 14:26:15;;;;;;;;;;;;;;;;;;5064443;28;19923;-84
2022/07/04 14:28:41;;;;;;;;;;;;;;;;;;5061958;28;20363;-82
2022/07/04 14:31:06;;;;;;;;;;;;;;;;;;5078327;28;19916;-85
2022/07/04 14:33:32;;;;;;;;;;;;;;;;;;5077539;28;19928;-85
2022/07/04 14:35:58;;;;;;;;;;;;;;;;;;5062166;28;19921;-85
2022/07/04 14:38:24;;;;;;;;;;;;;;;;;;5063442;28;20360;-85
2022/07/04 14:40:49;;;;;;;;;;;;;;;;;;5063055;28;19924;-86
2022/07/04 14:43:17;;;;;;;;;;;;;;;;;;5065309;28;19916;-88
2022/07/04 14:45:43;;;;;;;;;;;;;;;;;;5066109;28;19939;-85
2022/07/04 14:48:09;;;;;;;;;;;;;;;;;;5061727;28;19921;-86
2022/07/04 14:50:34;;;;;;;;;;;;;;;;;;5065198;28;19970;-86
2022/07/04 14:53:00;;;;;;;;;;;;;;;;;;5063699;28;20012;-86
2022/07/04 14:55:25;;;;;;;;;;;;;;;;;;5070320;28;19935;-86
2022/07/04 14:57:51;;;;;;;;;;;;;;;;;;5078211;28;19990;-85
2022/07/04 15:00:16;;;;;;;;;;;;;;;;;;5065934;28;19927;-84
2022/07/04 15:02:42;;;;;;;;;;;;;;;;;;5080418;28;19917;-86
2022/07/04 15:05:07;;;;;;;;;;;;;;;;;;5068025;28;19921;-88
2022/07/04 15:07:34;;;;;;;;;;;;;;;;;;5078522;28;19951;-84
2022/07/04 15:09:59;;;;;;;;;;;;;;;;;;5082195;28;19922;-85
2022/07/04 15:12:25;;;;;;;;;;;;;;;;;;5064703;28;20346;-84
2022/07/04 15:14:50;;;;;;;;;;;;;;;;;;5086613;28;19924;-86
2022/07/04 15:17:15;;;;;;;;;;;;;;;;;;5081666;28;19923;-85
2022/07/04 15:25:25;;;;;;;;;;;;;;;;;;5095229;22;19931;-93
2022/07/04 15:27:51;;;;;;;;;;;;;;;;;;5079931;28;19932;-93
2022/07/04 15:30:19;;;;;;;;;;;;;;;;;;5061188;28;19940;-85
2022/07/04 15:32:45;;;;;;;;;;;;;;;;;;5037716;28;19917;-84
2022/07/04 15:35:11;;;;;;;;;;;;;;;;;;5038876;28;19925;-85
2022/07/04 15:37:40;;;;;;;;;;;;;;;;;;5041560;28;19921;-85
2022/07/04 15:40:06;;;;;;;;;;;;;;;;;;5046500;28;19917;-92
2022/07/04 15:42:31;;;;;;;;;;;;;;;;;;5069729;28;20032;-86
2022/07/04 15:44:57;;;;;;;;;;;;;;;;;;5044701;28;20020;-85
2022/07/04 15:47:23;;;;;;;;;;;;;;;;;;5069839;28;19915;-84
2022/07/04 15:49:49;;;;;;;;;;;;;;;;;;5076505;28;19939;-84
2022/07/04 15:52:14;;;;;;;;;;;;;;;;;;5071453;28;19939;-87
2022/07/04 15:54:40;;;;;;;;;;;;;;;;;;5068570;28;19971;-84
2022/07/04 15:57:06;;;;;;;;;;;;;;;;;;5066174;28;19916;-85
2022/07/04 15:59:33;;;;;;;;;;;;;;;;;;5072298;28;20010;-85
2022/07/04 16:02:02;;;;;;;;;;;;;;;;;;5057751;28;19923;-84
2022/07/04 16:04:28;;;;;;;;;;;;;;;;;;5059509;28;19927;-85
2022/07/04 16:06:53;;;;;;;;;;;;;;;;;;5056633;28;20000;-85
2022/07/04 16:09:19;;;;;;;;;;;;;;;;;;5057648;28;19943;-84
2022/07/04 16:11:50;;;;;;;;;;;;;;;;;;5056993;28;20367;-84
2022/07/04 16:14:21;;;;;;;;;;;;;;;;;;5056785;28;19955;-84
2022/07/04 16:16:53;;;;;;;;;;;;;;;;;;5057492;28;19925;-85
2022/07/04 16:19:19;;;;;;;;;;;;;;;;;;5056829;28;20398;-84
2022/07/04 16:27:06;;;;;;;;;;;;;;;;;;4904534;26;19925;-87
2022/07/04 16:30:01;;;;;;;;;;;;;;;;;;5059898;28;19924;-93
2022/07/04 16:32:27;;;;;;;;;;;;;;;;;;5052194;28;20394;-94
2022/07/04 16:34:59;;;;;;;;;;;;;;;;;;5076913;28;19924;-94
2022/07/04 16:37:51;;;;;;;;;;;;;;;;;;5069227;28;19923;-96
2022/07/04 16:44:30;;;;;;;;;;;;;;;;;;5038604;28;19996;-86
2022/07/04 16:46:56;;;;;;;;;;;;;;;;;;4977685;28;20377;-86
2022/07/04 16:52:23;;;;;;;;;;;;;;;;;;5094805;22;19960;-86
2022/07/04 16:55:02;;;;;;;;;;;;;;;;;;5040853;28;19924;-85
2022/07/04 17:06:40;;;;;;;;;;;;;;;;;;5645594;22;19924;-88
2022/07/04 17:11:34;;;;;;;;;;;;;;;;;;5105789;22;19924;-92
2022/07/04 17:14:25;;;;;;;;;;;;;;;;;;5082682;28;19935;-90
2022/07/04 17:16:53;;;;;;;;;;;;;;;;;;5064873;28;20284;-85
2022/07/04 17:19:54;;;;;;;;;;;;;;;;;;5064448;28;19917;-85
2022/07/04 17:22:51;;;;;;;;;;;;;;;;;;5064401;28;20295;-91
2022/07/04 17:25:19;;;;;;;;;;;;;;;;;;5036661;28;19916;-84
2022/07/04 17:27:46;;;;;;;;;;;;;;;;;;5073177;28;19926;-84
2022/07/04 17:30:12;;;;;;;;;;;;;;;;;;5091310;28;19966;-85
2022/07/04 17:32:40;;;;;;;;;;;;;;;;;;5088958;28;20007;-86
2022/07/04 17:35:09;;;;;;;;;;;;;;;;;;5088622;28;20379;-86
2022/07/04 17:37:37;;;;;;;;;;;;;;;;;;5066984;28;20011;-84
2022/07/04 17:40:16;;;;;;;;;;;;;;;;;;5087302;28;19923;-85
2022/07/04 17:43:00;;;;;;;;;;;;;;;;;;5083482;28;20011;-90
2022/07/04 17:45:35;;;;;;;;;;;;;;;;;;5077106;28;20359;-93
2022/07/04 17:53:39;;;;;;;;;;;;;;;;;;5967649;22;19925;-85
2022/07/04 17:56:11;;;;;;;;;;;;;;;;;;5038134;28;19925;-90
2022/07/04 17:58:43;;;;;;;;;;;;;;;;;;5039890;28;20330;-86
2022/07/04 18:01:09;;;;;;;;;;;;;;;;;;5027575;28;19928;-84
2022/07/04 18:04:07;;;;;;;;;;;;;;;;;;5042861;28;19917;-87
2022/07/04 18:09:22;;;;;;;;;;;;;;;;;;4996499;28;20397;-88
2022/07/04 18:11:51;;;;;;;;;;;;;;;;;;4996237;28;19917;-88
2022/07/04 18:16:52;;;;;;;;;;;;;;;;;;5081032;22;19925;-85
2022/07/04 18:19:24;;;;;;;;;;;;;;;;;;5058458;28;19921;-85
2022/07/04 18:21:49;;;;;;;;;;;;;;;;;;5058143;28;19928;-90
2022/07/04 18:26:52;;;;;;;;;;;;;;;;;;5036895;28;19925;-93
2022/07/04 18:32:30;;;;;;;;;;;;;;;;;;5042072;28;19988;-85
2022/07/04 18:34:56;;;;;;;;;;;;;;;;;;5016132;28;19952;-94
2022/07/04 18:47:21;;;;;;;;;;;;;;;;;;5060317;28;19947;-93
2022/07/04 18:50:12;;;;;;;;;;;;;;;;;;5061569;28;19921;-95
2022/07/04 19:01:22;;;;;;;;;;;;;;;;;;5196441;22;19928;-91
2022/07/04 19:03:48;;;;;;;;;;;;;;;;;;5040379;28;19917;-91
2022/07/04 19:06:13;;;;;;;;;;;;;;;;;;5041780;28;20015;-93
2022/07/04 19:08:39;;;;;;;;;;;;;;;;;;5029131;28;19963;-83
2022/07/04 19:11:04;;;;;;;;;;;;;;;;;;5038743;28;20265;-82
2022/07/04 19:13:30;;;;;;;;;;;;;;;;;;5023044;28;20372;-82
2022/07/04 19:15:55;;;;;;;;;;;;;;;;;;5041675;28;20058;-86
2022/07/04 19:18:23;;;;;;;;;;;;;;;;;;5047594;28;19921;-84
2022/07/04 19:20:48;;;;;;;;;;;;;;;;;;5042434;28;20012;-86
2022/07/04 19:23:14;;;;;;;;;;;;;;;;;;5040305;28;20405;-82
2022/07/04 19:25:40;;;;;;;;;;;;;;;;;;5051732;28;19932;-84
2022/07/04 19:28:05;;;;;;;;;;;;;;;;;;5045889;28;19932;-82
2022/07/04 19:30:31;;;;;;;;;;;;;;;;;;5041929;28;19996;-82
2022/07/04 19:32:56;;;;;;;;;;;;;;;;;;5043575;28;20062;-87
2022/07/04 19:35:21;;;;;;;;;;;;;;;;;;5040927;28;19990;-83
2022/07/04 19:37:47;;;;;;;;;;;;;;;;;;5056357;28;19913;-83